LTBL/IGI METAR and TAF weather

Enter ICAO airport designator
Station Type Date Time Source
LTBL METAR 2022/11/30 22:50 UTC NOAA

LTBL 302250Z 07004KT 040V100 8000 FEW035 SCT200 14/11 Q1014 NOSIG RMK RWY17 08004KT


Station Type Date Time Source
LTBL Decoded METAR 2022/11/30 22:50 UTC NOAA

Izmir / Cigli, Turkey (LTBL) 38-30N 027-01E 5M
Nov 30, 2022 - 05:50 PM EST / 2022.11.30 2250 UTC
Wind: from the ENE (070 degrees) at 5 MPH (4 KT) (direction variable):0
Visibility: 4 mile(s):0
Sky conditions: partly cloudy
Temperature: 57 F (14 C)
Dew Point: 51 F (11 C)
Relative Humidity: 82%
Pressure (altimeter): 29.94 in. Hg (1014 hPa)
ob: LTBL 302250Z 07004KT 040V100 8000 FEW035 SCT200 14/11 Q1014 NOSIG RMK RWY17 08004KT
cycle: 23

Station Type Date Time Source
LTBL TAF UTC NOAA

Error!

Example: see airport list